Terminal Aerodrome Forecast
Issued by NWS Cleveland, OH

Home | Current Version | Previous Version | Graphics & Text | Print | Product List | Glossary On
Versions: 1 2 3 4 5 6 7 8 9 10 11 12
000
FTUS41 KCLE 222334
TAFERI
TAF
KERI 222334Z 2300/2324 29004KT P6SM FEW100
     FM231500 32006KT P6SM SCT035
     FM231700 32009KT P6SM FEW040=

USA.gov is the U.S. government's official web portal to all federal, state and local government web resources and services.